createdAt,value
2023-05-19T00:01:00.288Z,2.10
2023-05-19T00:03:27.244Z,2.17
2023-05-19T00:05:54.326Z,2.38
2023-05-19T00:08:24.491Z,2.25
2023-05-19T00:10:51.396Z,2.28
2023-05-19T00:13:18.360Z,2.50
2023-05-19T00:15:45.193Z,2.37
2023-05-19T00:18:14.172Z,2.85
2023-05-19T00:20:41.361Z,2.75
2023-05-19T00:23:08.131Z,2.67
2023-05-19T00:25:34.779Z,2.90
2023-05-19T00:28:02.471Z,2.37
2023-05-19T00:30:32.434Z,2.17
2023-05-19T00:32:59.166Z,2.40
2023-05-19T00:35:26.048Z,2.63
2023-05-19T00:37:52.553Z,2.05
2023-05-19T00:40:19.316Z,2.60
2023-05-19T00:42:45.847Z,2.40
2023-05-19T00:45:12.451Z,2.30
2023-05-19T00:47:39.469Z,2.05
2023-05-19T00:50:06.374Z,2.28
2023-05-19T00:52:32.998Z,2.40
2023-05-19T00:54:59.786Z,2.22
2023-05-19T00:57:27.146Z,2.42
2023-05-19T00:59:54.084Z,2.72
2023-05-19T01:02:21.545Z,2.58
2023-05-19T01:04:48.202Z,2.60
2023-05-19T01:07:15.307Z,2.67
2023-05-19T01:09:41.997Z,2.03
2023-05-19T01:12:08.936Z,2.17
2023-05-19T01:14:35.759Z,2.80
2023-05-19T01:17:15.839Z,2.70
2023-05-19T01:19:56.387Z,2.47
2023-05-19T01:22:42.923Z,2.33
2023-05-19T01:25:43.511Z,2.15
2023-05-19T01:28:20.471Z,2.45
2023-05-19T01:30:54.813Z,2.47
2023-05-19T01:33:23.349Z,2.53
2023-05-19T01:35:51.005Z,2.40
2023-05-19T01:38:19.257Z,2.83
2023-05-19T01:40:49.345Z,2.90
2023-05-19T01:43:20.335Z,2.67
2023-05-19T01:45:48.140Z,2.30
2023-05-19T01:48:15.373Z,2.28
2023-05-19T01:50:42.420Z,2.45
2023-05-19T01:53:09.103Z,2.15
2023-05-19T01:55:43.380Z,2.70
2023-05-19T01:58:21.293Z,2.78
2023-05-19T02:01:16.591Z,2.50
2023-05-19T02:04:11.173Z,2.38
2023-05-19T02:06:47.613Z,2.72
2023-05-19T02:09:30.363Z,2.47
2023-05-19T02:12:11.082Z,2.38
2023-05-19T02:14:45.479Z,2.72
2023-05-19T02:17:16.507Z,3.00
2023-05-19T02:19:43.645Z,2.47
2023-05-19T02:22:10.469Z,2.40
2023-05-19T02:24:37.681Z,2.60
2023-05-19T02:27:04.429Z,2.40
2023-05-19T02:29:31.039Z,2.53
2023-05-19T02:31:57.609Z,3.15
2023-05-19T02:34:24.103Z,2.63
2023-05-19T02:36:50.665Z,2.80
2023-05-19T02:39:17.259Z,2.53
2023-05-19T02:41:43.834Z,2.88
2023-05-19T02:44:10.379Z,2.65
2023-05-19T02:46:36.938Z,2.70
2023-05-19T02:49:03.540Z,2.60
2023-05-19T02:51:30.083Z,2.55
2023-05-19T02:53:56.753Z,2.90
2023-05-19T02:56:23.246Z,2.67
2023-05-19T02:58:49.728Z,2.53
2023-05-19T03:01:16.636Z,2.83
2023-05-19T03:03:43.371Z,2.65
2023-05-19T03:06:09.896Z,3.00
2023-05-19T03:08:36.446Z,3.00
2023-05-19T03:11:03.660Z,3.10
2023-05-19T03:13:30.243Z,2.60
2023-05-19T03:15:59.159Z,2.60
2023-05-19T03:18:26.634Z,2.72
2023-05-19T03:20:56.526Z,3.13
2023-05-19T03:23:23.092Z,3.07
2023-05-19T03:25:49.748Z,2.83
2023-05-19T03:28:17.213Z,3.00
2023-05-19T03:30:43.833Z,3.08
2023-05-19T03:33:10.469Z,2.80
2023-05-19T03:35:37.183Z,3.00
2023-05-19T03:38:03.761Z,3.20
2023-05-19T03:40:30.405Z,3.50
2023-05-19T03:42:57.145Z,3.03
2023-05-19T03:45:23.629Z,3.03
2023-05-19T03:47:50.257Z,3.13
2023-05-19T03:50:16.837Z,3.20
2023-05-19T03:52:46.523Z,2.97
2023-05-19T03:55:14.676Z,3.00
2023-05-19T03:57:41.577Z,2.70
2023-05-19T04:00:09.117Z,3.17
2023-05-19T04:02:35.728Z,3.30
2023-05-19T04:05:04.858Z,3.53
2023-05-19T04:07:31.765Z,3.08
2023-05-19T04:09:58.270Z,2.80
2023-05-19T04:12:24.793Z,3.60
2023-05-19T04:14:51.317Z,3.20
2023-05-19T04:17:18.001Z,3.42
2023-05-19T04:19:44.571Z,3.03
2023-05-19T04:22:11.080Z,3.05
2023-05-19T04:24:37.596Z,3.87
2023-05-19T04:27:04.849Z,3.13
2023-05-19T04:29:32.612Z,3.13
2023-05-19T04:31:59.115Z,3.40
2023-05-19T04:34:25.621Z,2.97
2023-05-19T04:36:53.502Z,3.23
2023-05-19T04:39:21.464Z,2.92
2023-05-19T04:41:48.262Z,3.47
2023-05-19T04:44:18.185Z,3.42
2023-05-19T04:46:45.304Z,3.13
2023-05-19T04:49:14.705Z,2.93
2023-05-19T04:51:41.592Z,3.42
2023-05-19T04:54:08.504Z,3.42
2023-05-19T04:56:35.001Z,3.22
2023-05-19T04:59:01.564Z,3.65
2023-05-19T05:01:28.233Z,3.63
2023-05-19T05:03:59.059Z,4.13
2023-05-19T05:06:26.453Z,3.50
2023-05-19T05:08:53.093Z,4.05
2023-05-19T05:11:19.939Z,4.20
2023-05-19T05:13:46.733Z,4.07
2023-05-19T05:16:14.343Z,3.90
2023-05-19T05:18:44.306Z,3.85
2023-05-19T05:21:12.245Z,3.85
2023-05-19T05:23:39.049Z,3.70
2023-05-19T05:26:12.964Z,3.90
2023-05-19T05:28:39.481Z,3.88
2023-05-19T05:31:06.128Z,3.92
2023-05-19T05:33:32.734Z,4.30
2023-05-19T05:35:59.252Z,3.92
2023-05-19T05:38:25.924Z,3.50
2023-05-19T05:40:52.673Z,4.45
2023-05-19T05:43:19.134Z,4.05
2023-05-19T05:45:45.642Z,5.10
2023-05-19T05:48:12.424Z,3.72
2023-05-19T05:50:39.207Z,4.20
2023-05-19T05:53:07.302Z,4.03
2023-05-19T05:55:34.447Z,4.55
2023-05-19T05:58:02.278Z,3.92
2023-05-19T06:00:29.888Z,4.30
2023-05-19T06:02:57.160Z,4.27
2023-05-19T06:05:25.048Z,4.47
2023-05-19T06:07:51.532Z,4.38
2023-05-19T06:10:18.019Z,4.50
2023-05-19T06:12:44.705Z,4.40
2023-05-19T06:15:11.267Z,3.97
2023-05-19T06:17:37.923Z,4.90
2023-05-19T06:20:05.918Z,4.55
2023-05-19T06:22:32.727Z,4.30
2023-05-19T06:24:59.370Z,4.00
2023-05-19T06:27:26.131Z,4.47
2023-05-19T06:29:53.130Z,4.57
2023-05-19T06:32:19.864Z,4.55
2023-05-19T06:34:46.508Z,4.70
2023-05-19T06:37:14.877Z,4.22
2023-05-19T06:39:41.432Z,4.53
2023-05-19T06:42:07.919Z,4.03
2023-05-19T06:44:34.384Z,4.50
2023-05-19T06:47:00.889Z,4.53
2023-05-19T06:49:29.415Z,4.28
2023-05-19T06:51:55.957Z,4.47
2023-05-19T06:54:22.505Z,4.63
2023-05-19T06:56:49.129Z,4.28
2023-05-19T06:59:16.193Z,4.43
2023-05-19T07:01:42.686Z,4.40
2023-05-19T07:04:09.220Z,4.70
2023-05-19T07:06:35.747Z,4.72
2023-05-19T07:09:05.159Z,4.45
2023-05-19T07:11:32.316Z,4.10
2023-05-19T07:13:58.802Z,4.40
2023-05-19T07:16:25.425Z,3.97
2023-05-19T07:18:52.080Z,3.92
2023-05-19T07:21:18.656Z,3.85
2023-05-19T07:23:45.136Z,4.22
2023-05-19T07:26:11.652Z,4.20
2023-05-19T07:28:39.862Z,3.70
2023-05-19T07:31:08.091Z,3.45
2023-05-19T07:33:34.642Z,4.00
2023-05-19T07:36:01.180Z,3.75
2023-05-19T07:38:28.759Z,3.47
2023-05-19T07:40:55.430Z,3.23
2023-05-19T07:43:22.022Z,2.80
2023-05-19T07:45:48.540Z,2.97
2023-05-19T07:48:15.195Z,2.80
2023-05-19T07:50:41.710Z,3.03
2023-05-19T07:53:08.266Z,2.87
2023-05-19T07:55:34.863Z,3.35
2023-05-19T07:58:01.424Z,2.80
2023-05-19T08:00:28.380Z,2.30
2023-05-19T08:02:56.958Z,2.28
2023-05-19T08:05:23.970Z,2.23
2023-05-19T08:07:50.500Z,2.50
2023-05-19T08:10:17.147Z,2.17
2023-05-19T08:12:44.173Z,2.30
2023-05-19T08:15:11.798Z,1.88
2023-05-19T08:17:38.429Z,2.30
2023-05-19T08:20:08.202Z,1.92
2023-05-19T08:22:34.743Z,1.80
2023-05-19T08:25:01.475Z,1.65
2023-05-19T08:27:28.035Z,1.40
2023-05-19T08:29:55.318Z,1.30
2023-05-19T08:32:21.916Z,1.27
2023-05-19T08:34:48.694Z,1.60
2023-05-19T08:37:15.373Z,1.52
2023-05-19T08:39:41.923Z,1.50
2023-05-19T08:42:09.926Z,1.07
2023-05-19T08:44:40.141Z,1.30
2023-05-19T08:47:12.791Z,1.50
2023-05-19T08:49:51.148Z,0.93
2023-05-19T08:52:47.240Z,1.08
2023-05-19T08:55:38.220Z,1.30
2023-05-19T08:58:04.997Z,0.95
2023-05-19T09:00:32.746Z,1.10
2023-05-19T09:03:16.903Z,1.42
2023-05-19T09:05:46.549Z,0.98
2023-05-19T09:08:13.732Z,1.00
2023-05-19T09:10:40.263Z,1.08
2023-05-19T09:13:06.956Z,1.40
2023-05-19T09:15:36.874Z,1.25
2023-05-19T09:18:14.110Z,1.48
2023-05-19T09:20:42.381Z,1.20
2023-05-19T09:23:16.798Z,1.50
2023-05-19T09:25:50.790Z,1.27
2023-05-19T09:28:28.084Z,1.40
2023-05-19T09:31:05.517Z,1.55
2023-05-19T09:33:36.875Z,1.40
2023-05-19T09:36:08.592Z,1.27
2023-05-19T09:38:36.359Z,2.33
2023-05-19T09:41:03.320Z,1.60
2023-05-19T09:43:30.961Z,1.58
2023-05-19T09:46:01.753Z,1.30
2023-05-19T09:48:28.386Z,1.52
2023-05-19T09:50:55.016Z,1.20
2023-05-19T09:53:22.273Z,1.55
2023-05-19T09:55:49.927Z,1.55
2023-05-19T09:58:18.485Z,2.13
2023-05-19T10:00:47.024Z,1.35
2023-05-19T10:03:14.733Z,1.30
2023-05-19T10:05:42.040Z,1.67
2023-05-19T10:08:10.448Z,1.40
2023-05-19T10:10:38.269Z,2.03
2023-05-19T10:13:06.249Z,1.67
2023-05-19T10:15:36.088Z,1.65
2023-05-19T10:18:07.043Z,1.60
2023-05-19T10:20:35.304Z,1.50
2023-05-19T10:23:03.179Z,1.40
2023-05-19T10:25:34.810Z,1.48
2023-05-19T10:28:07.923Z,1.23
2023-05-19T10:30:41.688Z,1.55
2023-05-19T10:33:13.069Z,1.65
2023-05-19T10:36:28.442Z,1.83
2023-05-19T10:39:07.770Z,1.20
2023-05-19T10:41:53.737Z,1.92
2023-05-19T10:44:44.977Z,1.80
2023-05-19T10:47:12.443Z,2.10
2023-05-19T10:49:39.639Z,1.43
2023-05-19T10:52:23.470Z,1.65
2023-05-19T10:54:50.082Z,1.77
2023-05-19T10:57:18.076Z,1.25
2023-05-19T10:59:45.208Z,1.85
2023-05-19T11:02:41.568Z,1.83
2023-05-19T11:05:09.358Z,1.83
2023-05-19T11:07:36.095Z,1.73
2023-05-19T11:10:07.593Z,1.70
2023-05-19T11:12:43.101Z,1.70
2023-05-19T11:15:14.960Z,1.50
2023-05-19T11:17:42.823Z,1.80
2023-05-19T11:20:22.529Z,1.35
2023-05-19T11:23:08.159Z,1.52
2023-05-19T11:25:46.999Z,1.60
2023-05-19T11:28:19.520Z,1.40
2023-05-19T11:30:50.610Z,1.55
2023-05-19T11:33:20.909Z,1.40
2023-05-19T11:35:49.801Z,1.15
2023-05-19T11:38:18.550Z,1.67
2023-05-19T11:40:45.322Z,1.00
2023-05-19T11:43:12.007Z,1.40
2023-05-19T11:45:39.090Z,1.40
2023-05-19T11:48:07.026Z,1.48
2023-05-19T11:50:33.777Z,1.90
2023-05-19T11:53:01.493Z,1.47
2023-05-19T11:55:28.975Z,1.27
2023-05-19T11:58:03.994Z,1.33
2023-05-19T12:00:37.615Z,1.77
2023-05-19T12:03:04.386Z,1.10
2023-05-19T12:05:34.445Z,1.50
2023-05-19T12:08:02.797Z,1.10
2023-05-19T12:10:31.400Z,1.35
2023-05-19T12:12:58.575Z,1.20
2023-05-19T12:15:25.816Z,1.40
2023-05-19T12:17:58.322Z,1.20
2023-05-19T12:20:25.813Z,1.17
2023-05-19T12:22:53.205Z,0.80
2023-05-19T12:25:20.466Z,1.35
2023-05-19T12:27:48.722Z,1.30
2023-05-19T12:30:16.397Z,1.30
2023-05-19T12:32:44.024Z,1.65
2023-05-19T12:35:10.968Z,1.52
2023-05-19T12:37:41.723Z,1.30
2023-05-19T12:40:10.016Z,1.95
2023-05-19T12:42:37.772Z,1.80
2023-05-19T12:45:04.981Z,2.28
2023-05-19T12:47:35.866Z,2.30
2023-05-19T12:50:06.377Z,2.70
2023-05-19T12:52:35.488Z,2.85
2023-05-19T12:55:07.227Z,2.30
2023-05-19T12:57:38.057Z,2.13
2023-05-19T13:00:11.683Z,2.08
2023-05-19T13:02:55.901Z,1.83
2023-05-19T13:05:23.051Z,2.05
2023-05-19T13:07:55.706Z,1.70
2023-05-19T13:10:22.504Z,1.90
2023-05-19T13:12:48.990Z,2.03
2023-05-19T13:15:15.655Z,1.80
2023-05-19T13:17:42.856Z,1.75
2023-05-19T13:20:09.665Z,1.83
2023-05-19T13:22:36.160Z,1.73
2023-05-19T13:25:02.641Z,2.00
2023-05-19T13:27:29.324Z,1.85
2023-05-19T13:29:55.889Z,2.28
2023-05-19T13:32:22.397Z,2.27
2023-05-19T13:34:48.948Z,2.00
2023-05-19T13:37:15.522Z,1.70
2023-05-19T13:39:42.174Z,1.70
2023-05-19T13:42:08.704Z,2.00
2023-05-19T13:44:35.311Z,2.03
2023-05-19T13:47:01.904Z,1.88
2023-05-19T13:49:28.412Z,1.65
2023-05-19T13:51:58.334Z,1.60
2023-05-19T13:54:24.853Z,1.98
2023-05-19T13:56:51.418Z,1.80
2023-05-19T13:59:17.928Z,2.13
2023-05-19T14:01:45.420Z,2.20
2023-05-19T14:04:12.187Z,1.85
2023-05-19T14:06:38.908Z,1.80
2023-05-19T14:09:09.371Z,1.93
2023-05-19T14:11:35.971Z,1.60
2023-05-19T14:14:05.669Z,1.55
2023-05-19T14:16:32.611Z,1.67
2023-05-19T14:18:59.150Z,1.63
2023-05-19T14:21:25.925Z,2.10
2023-05-19T14:23:52.432Z,1.65
2023-05-19T14:26:19.748Z,1.70
2023-05-19T14:28:46.252Z,1.60
2023-05-19T14:31:13.704Z,1.75
2023-05-19T14:33:41.273Z,1.50
2023-05-19T14:36:08.827Z,1.85
2023-05-19T14:38:35.919Z,1.42
2023-05-19T14:41:03.165Z,1.20
2023-05-19T14:43:29.754Z,1.75
2023-05-19T14:45:57.041Z,1.40
2023-05-19T14:48:23.586Z,1.40
2023-05-19T14:50:50.290Z,1.60
2023-05-19T14:53:16.945Z,1.48
2023-05-19T14:55:43.734Z,1.88
2023-05-19T14:58:23.632Z,1.50
2023-05-19T15:00:54.602Z,1.45
2023-05-19T15:03:23.123Z,1.73
2023-05-19T15:05:49.776Z,1.90
2023-05-19T15:08:16.628Z,1.90
2023-05-19T15:10:43.193Z,1.60
2023-05-19T15:13:09.750Z,2.03
2023-05-19T15:15:36.297Z,1.70
2023-05-19T15:18:02.795Z,1.88
2023-05-19T15:20:29.728Z,1.73
2023-05-19T15:22:56.275Z,1.57
2023-05-19T15:25:22.788Z,1.50
2023-05-19T15:27:49.360Z,1.70
2023-05-19T15:30:16.240Z,1.35
2023-05-19T15:32:42.770Z,1.98
2023-05-19T15:35:09.435Z,1.77
2023-05-19T15:37:35.945Z,1.50
2023-05-19T15:40:02.522Z,1.67
2023-05-19T15:42:29.051Z,1.50
2023-05-19T15:44:55.652Z,1.70
2023-05-19T15:47:28.753Z,1.60
2023-05-19T15:49:55.402Z,1.70
2023-05-19T15:52:21.984Z,1.60
2023-05-19T15:54:48.903Z,1.50
2023-05-19T15:57:15.475Z,1.80
2023-05-19T15:59:42.028Z,1.70
2023-05-19T16:02:08.730Z,1.60
2023-05-19T16:04:35.363Z,1.70
2023-05-19T16:07:01.832Z,1.80
2023-05-19T16:09:28.328Z,1.50
2023-05-19T16:11:54.816Z,1.75
2023-05-19T16:14:21.366Z,1.63
2023-05-19T16:16:47.916Z,1.80
2023-05-19T16:19:14.497Z,1.52
2023-05-19T16:21:41.171Z,1.80
2023-05-19T16:24:07.677Z,1.73
2023-05-19T16:26:34.516Z,1.53
2023-05-19T16:29:01.057Z,1.80
2023-05-19T16:31:27.774Z,1.80
2023-05-19T16:33:54.300Z,2.08
2023-05-19T16:36:22.753Z,1.70
2023-05-19T16:38:49.330Z,1.50
2023-05-19T16:41:15.949Z,1.70
2023-05-19T16:43:42.525Z,1.60
2023-05-19T16:46:11.992Z,1.45
2023-05-19T16:48:38.780Z,1.90
2023-05-19T16:51:05.380Z,1.60
2023-05-19T16:53:31.974Z,1.38
2023-05-19T16:56:01.415Z,1.65
2023-05-19T16:58:28.921Z,2.00
2023-05-19T17:00:57.814Z,1.98
2023-05-19T17:03:24.500Z,1.60
2023-05-19T17:05:51.253Z,1.50
2023-05-19T17:08:17.889Z,2.00
2023-05-19T17:10:44.882Z,1.85
2023-05-19T17:13:11.794Z,2.15
2023-05-19T17:15:38.367Z,1.50
2023-05-19T17:18:05.807Z,1.88
2023-05-19T17:20:32.582Z,1.60
2023-05-19T17:22:59.252Z,1.60
2023-05-19T17:25:25.854Z,1.58
2023-05-19T17:27:52.461Z,1.53
2023-05-19T17:30:19.015Z,1.80
2023-05-19T17:32:45.839Z,1.80
2023-05-19T17:35:12.478Z,1.60
2023-05-19T17:37:39.073Z,1.50
2023-05-19T17:40:06.319Z,1.87
2023-05-19T17:42:32.901Z,1.80
2023-05-19T17:44:59.407Z,1.90
2023-05-19T17:47:26.104Z,1.30
2023-05-19T17:49:55.515Z,1.60
2023-05-19T17:52:22.398Z,1.57
2023-05-19T17:54:49.212Z,1.38
2023-05-19T17:57:17.519Z,1.45
2023-05-19T17:59:44.396Z,1.70
2023-05-19T18:02:11.928Z,1.52
2023-05-19T18:04:38.847Z,1.43
2023-05-19T18:07:06.989Z,1.48
2023-05-19T18:09:37.298Z,1.45
2023-05-19T18:12:05.361Z,1.50
2023-05-19T18:14:31.881Z,1.52
2023-05-19T18:16:58.376Z,1.60
2023-05-19T18:19:24.964Z,1.40
2023-05-19T18:21:51.501Z,1.45
2023-05-19T18:24:18.000Z,1.10
2023-05-19T18:26:44.533Z,1.80
2023-05-19T18:29:11.486Z,1.37
2023-05-19T18:31:38.337Z,1.50
2023-05-19T18:34:04.984Z,1.35
2023-05-19T18:36:31.738Z,1.40
2023-05-19T18:39:01.948Z,1.60
2023-05-19T18:41:28.495Z,1.87
2023-05-19T18:43:55.026Z,1.65
2023-05-19T18:46:21.619Z,1.40
2023-05-19T18:48:50.539Z,1.60
2023-05-19T18:51:18.678Z,1.70
2023-05-19T18:53:47.031Z,1.70
2023-05-19T18:56:15.212Z,1.50
2023-05-19T18:58:41.783Z,1.50
2023-05-19T19:01:08.524Z,1.50
2023-05-19T19:03:35.049Z,1.40
2023-05-19T19:06:01.583Z,1.30
2023-05-19T19:08:28.143Z,1.77
2023-05-19T19:10:59.177Z,1.90
2023-05-19T19:13:25.699Z,1.63
2023-05-19T19:15:52.232Z,1.85
2023-05-19T19:18:18.793Z,1.60
2023-05-19T19:20:45.393Z,1.75
2023-05-19T19:23:11.918Z,1.48
2023-05-19T19:25:38.515Z,1.75
2023-05-19T19:28:05.093Z,1.48
2023-05-19T19:30:32.003Z,1.47
2023-05-19T19:32:59.499Z,1.70
2023-05-19T19:35:26.287Z,1.73
2023-05-19T19:37:52.846Z,1.60
2023-05-19T19:40:19.438Z,1.63
2023-05-19T19:42:45.995Z,1.23
2023-05-19T19:45:15.420Z,1.40
2023-05-19T19:47:42.274Z,1.42
2023-05-19T19:50:09.722Z,1.80
2023-05-19T19:52:36.808Z,1.52
2023-05-19T19:55:03.567Z,1.60
2023-05-19T19:57:31.659Z,1.83
2023-05-19T20:00:04.615Z,1.60
2023-05-19T20:02:31.326Z,1.40
2023-05-19T20:04:57.865Z,1.70
2023-05-19T20:07:24.436Z,1.60
2023-05-19T20:09:52.709Z,2.00
2023-05-19T20:12:19.191Z,1.98
2023-05-19T20:14:46.142Z,2.20
2023-05-19T20:17:12.637Z,2.15
2023-05-19T20:19:39.124Z,2.13
2023-05-19T20:22:05.613Z,1.42
2023-05-19T20:24:32.114Z,1.95
2023-05-19T20:26:58.622Z,2.30
2023-05-19T20:29:25.138Z,1.70
2023-05-19T20:31:51.635Z,2.27
2023-05-19T20:34:18.139Z,2.28
2023-05-19T20:36:44.735Z,2.33
2023-05-19T20:39:11.294Z,2.92
2023-05-19T20:41:37.822Z,2.38
2023-05-19T20:44:04.518Z,2.40
2023-05-19T20:46:31.122Z,2.38
2023-05-19T20:48:57.744Z,2.78
2023-05-19T20:51:25.224Z,2.35
2023-05-19T20:53:52.160Z,2.85
2023-05-19T20:56:19.648Z,3.00
2023-05-19T20:58:46.278Z,2.88
2023-05-19T21:01:12.830Z,2.85
2023-05-19T21:03:39.420Z,2.85
2023-05-19T21:06:05.983Z,2.88
2023-05-19T21:08:32.493Z,2.73
2023-05-19T21:10:59.348Z,2.88
2023-05-19T21:13:25.963Z,2.92
2023-05-19T21:15:52.483Z,2.67
2023-05-19T21:18:19.029Z,3.10
2023-05-19T21:20:45.531Z,3.07
2023-05-19T21:23:12.279Z,3.17
2023-05-19T21:25:39.680Z,3.00
2023-05-19T21:28:06.421Z,2.75
2023-05-19T21:30:33.232Z,2.95
2023-05-19T21:32:59.874Z,2.87
2023-05-19T21:35:26.467Z,3.10
2023-05-19T21:37:52.942Z,3.42
2023-05-19T21:40:19.484Z,2.97
2023-05-19T21:42:46.188Z,2.90
2023-05-19T21:45:12.670Z,2.50
2023-05-19T21:47:39.508Z,2.80
2023-05-19T21:50:06.785Z,2.88
2023-05-19T21:52:33.303Z,3.40
2023-05-19T21:54:59.786Z,3.10
2023-05-19T21:57:26.319Z,2.70
2023-05-19T21:59:52.783Z,2.45
2023-05-19T22:02:19.310Z,3.10
2023-05-19T22:04:46.132Z,2.75
2023-05-19T22:07:12.659Z,2.92
2023-05-19T22:09:39.197Z,2.43
2023-05-19T22:12:06.487Z,2.55
2023-05-19T22:14:33.005Z,2.67
2023-05-19T22:16:59.545Z,2.60
2023-05-19T22:19:26.287Z,2.60
2023-05-19T22:22:01.810Z,2.60
2023-05-19T22:24:32.637Z,2.35
2023-05-19T22:26:59.213Z,2.78
2023-05-19T22:29:25.713Z,2.45
2023-05-19T22:31:52.257Z,2.67
2023-05-19T22:34:18.814Z,2.40
2023-05-19T22:36:46.248Z,2.50
2023-05-19T22:39:12.766Z,2.55
2023-05-19T22:41:40.172Z,2.25
2023-05-19T22:44:06.991Z,2.53
2023-05-19T22:46:34.214Z,2.50
2023-05-19T22:49:00.960Z,2.63
2023-05-19T22:51:27.592Z,2.78
2023-05-19T22:53:54.104Z,3.17
2023-05-19T22:56:20.937Z,2.70
2023-05-19T22:58:47.477Z,3.07
2023-05-19T23:01:13.988Z,2.85
2023-05-19T23:03:40.537Z,2.55
2023-05-19T23:06:07.034Z,2.60
2023-05-19T23:08:33.494Z,2.90
2023-05-19T23:11:01.209Z,2.80
2023-05-19T23:13:27.977Z,2.72
2023-05-19T23:15:54.483Z,2.80
2023-05-19T23:18:20.981Z,2.65
2023-05-19T23:20:47.644Z,2.67
2023-05-19T23:23:14.288Z,2.30
2023-05-19T23:25:40.867Z,2.35
2023-05-19T23:28:10.141Z,3.15
2023-05-19T23:30:38.037Z,3.00
2023-05-19T23:33:04.527Z,2.80
2023-05-19T23:35:31.154Z,2.83
2023-05-19T23:37:57.630Z,2.67
2023-05-19T23:40:24.142Z,2.80
2023-05-19T23:42:50.619Z,2.38
2023-05-19T23:45:17.296Z,2.78
2023-05-19T23:47:43.793Z,2.40
2023-05-19T23:50:10.658Z,2.97
2023-05-19T23:52:37.149Z,2.55
2023-05-19T23:55:03.961Z,2.88
2023-05-19T23:57:30.473Z,2.30
2023-05-19T23:59:56.971Z,2.53
